sensor_id;sensor_type;location;lat;lon;timestamp;temperature;humidity
52965;DHT22;42923;53.220;6.528;2023-07-30T00:01:44;15.00;99.90
52965;DHT22;42923;53.220;6.528;2023-07-30T00:04:10;15.10;99.90
52965;DHT22;42923;53.220;6.528;2023-07-30T00:06:36;15.10;99.90
52965;DHT22;42923;53.220;6.528;2023-07-30T00:09:02;15.10;99.90
52965;DHT22;42923;53.220;6.528;2023-07-30T00:11:27;15.10;99.90
52965;DHT22;42923;53.220;6.528;2023-07-30T00:13:53;15.10;99.90
52965;DHT22;42923;53.220;6.528;2023-07-30T00:16:19;15.10;99.90
52965;DHT22;42923;53.220;6.528;2023-07-30T00:18:45;15.10;99.90
52965;DHT22;42923;53.220;6.528;2023-07-30T00:21:11;15.10;99.90
52965;DHT22;42923;53.220;6.528;2023-07-30T00:23:36;15.10;99.90
52965;DHT22;42923;53.220;6.528;2023-07-30T00:26:02;15.10;99.90
52965;DHT22;42923;53.220;6.528;2023-07-30T00:28:28;15.10;99.90
52965;DHT22;42923;53.220;6.528;2023-07-30T00:30:54;15.20;99.90
52965;DHT22;42923;53.220;6.528;2023-07-30T00:33:20;15.10;99.90
52965;DHT22;42923;53.220;6.528;2023-07-30T00:35:45;15.10;99.90
52965;DHT22;42923;53.220;6.528;2023-07-30T00:38:11;15.10;99.90
52965;DHT22;42923;53.220;6.528;2023-07-30T00:40:40;15.10;99.90
52965;DHT22;42923;53.220;6.528;2023-07-30T00:43:07;15.00;99.90
52965;DHT22;42923;53.220;6.528;2023-07-30T00:45:33;15.00;99.90
52965;DHT22;42923;53.220;6.528;2023-07-30T00:48:00;15.00;99.90
52965;DHT22;42923;53.220;6.528;2023-07-30T00:50:26;15.00;99.90
52965;DHT22;42923;53.220;6.528;2023-07-30T00:52:51;15.00;99.90
52965;DHT22;42923;53.220;6.528;2023-07-30T00:55:18;15.00;99.90
52965;DHT22;42923;53.220;6.528;2023-07-30T00:57:45;15.00;99.90
52965;DHT22;42923;53.220;6.528;2023-07-30T01:00:12;15.00;99.90
52965;DHT22;42923;53.220;6.528;2023-07-30T01:02:38;15.00;99.90
52965;DHT22;42923;53.220;6.528;2023-07-30T01:05:04;15.00;99.90
52965;DHT22;42923;53.220;6.528;2023-07-30T01:07:30;14.90;99.90
52965;DHT22;42923;53.220;6.528;2023-07-30T01:09:57;14.90;99.90
52965;DHT22;42923;53.220;6.528;2023-07-30T01:12:23;14.90;99.90
52965;DHT22;42923;53.220;6.528;2023-07-30T01:14:49;15.00;99.90
52965;DHT22;42923;53.220;6.528;2023-07-30T01:17:16;15.00;99.90
52965;DHT22;42923;53.220;6.528;2023-07-30T01:19:42;15.00;99.90
52965;DHT22;42923;53.220;6.528;2023-07-30T01:22:08;15.00;99.90
52965;DHT22;42923;53.220;6.528;2023-07-30T01:24:33;15.10;99.90
52965;DHT22;42923;53.220;6.528;2023-07-30T01:27:04;15.10;99.90
52965;DHT22;42923;53.220;6.528;2023-07-30T01:29:51;15.10;99.90
52965;DHT22;42923;53.220;6.528;2023-07-30T01:32:23;15.10;99.90
52965;DHT22;42923;53.220;6.528;2023-07-30T01:34:52;15.10;99.90
52965;DHT22;42923;53.220;6.528;2023-07-30T01:37:18;15.20;99.90
52965;DHT22;42923;53.220;6.528;2023-07-30T01:39:45;15.10;99.90
52965;DHT22;42923;53.220;6.528;2023-07-30T01:42:12;15.10;99.90
52965;DHT22;42923;53.220;6.528;2023-07-30T01:44:38;15.10;99.90
52965;DHT22;42923;53.220;6.528;2023-07-30T01:47:04;15.10;99.90
52965;DHT22;42923;53.220;6.528;2023-07-30T01:49:30;15.10;99.90
52965;DHT22;42923;53.220;6.528;2023-07-30T01:51:56;15.20;99.90
52965;DHT22;42923;53.220;6.528;2023-07-30T01:54:22;15.30;99.90
52965;DHT22;42923;53.220;6.528;2023-07-30T01:56:47;15.20;99.90
52965;DHT22;42923;53.220;6.528;2023-07-30T01:59:13;15.20;99.90
52965;DHT22;42923;53.220;6.528;2023-07-30T02:01:39;15.30;99.90
52965;DHT22;42923;53.220;6.528;2023-07-30T02:04:05;15.30;99.90
52965;DHT22;42923;53.220;6.528;2023-07-30T02:06:32;15.30;99.90
52965;DHT22;42923;53.220;6.528;2023-07-30T02:08:57;15.30;99.90
52965;DHT22;42923;53.220;6.528;2023-07-30T02:11:23;15.40;99.90
52965;DHT22;42923;53.220;6.528;2023-07-30T02:13:49;15.40;99.90
52965;DHT22;42923;53.220;6.528;2023-07-30T02:16:15;15.40;99.90
52965;DHT22;42923;53.220;6.528;2023-07-30T02:18:40;15.40;99.90
52965;DHT22;42923;53.220;6.528;2023-07-30T02:21:06;15.50;99.90
52965;DHT22;42923;53.220;6.528;2023-07-30T02:23:32;15.50;99.90
52965;DHT22;42923;53.220;6.528;2023-07-30T02:25:58;15.50;99.90
52965;DHT22;42923;53.220;6.528;2023-07-30T02:28:24;15.50;99.90
52965;DHT22;42923;53.220;6.528;2023-07-30T02:30:49;15.50;99.90
52965;DHT22;42923;53.220;6.528;2023-07-30T02:33:15;15.60;99.90
52965;DHT22;42923;53.220;6.528;2023-07-30T02:35:43;15.60;99.90
52965;DHT22;42923;53.220;6.528;2023-07-30T02:38:09;15.60;99.90
52965;DHT22;42923;53.220;6.528;2023-07-30T02:40:35;15.60;99.90
52965;DHT22;42923;53.220;6.528;2023-07-30T02:43:00;15.60;99.90
52965;DHT22;42923;53.220;6.528;2023-07-30T02:45:26;15.60;99.90
52965;DHT22;42923;53.220;6.528;2023-07-30T02:47:52;15.50;99.90
52965;DHT22;42923;53.220;6.528;2023-07-30T02:50:18;15.50;99.90
52965;DHT22;42923;53.220;6.528;2023-07-30T02:52:44;15.50;99.90
52965;DHT22;42923;53.220;6.528;2023-07-30T02:55:09;15.50;99.90
52965;DHT22;42923;53.220;6.528;2023-07-30T02:57:35;15.40;99.90
52965;DHT22;42923;53.220;6.528;2023-07-30T03:00:01;15.40;99.90
52965;DHT22;42923;53.220;6.528;2023-07-30T03:02:29;15.40;99.90
52965;DHT22;42923;53.220;6.528;2023-07-30T03:04:55;15.40;99.90
52965;DHT22;42923;53.220;6.528;2023-07-30T03:07:20;15.30;99.90
52965;DHT22;42923;53.220;6.528;2023-07-30T03:09:46;15.30;99.90
52965;DHT22;42923;53.220;6.528;2023-07-30T03:12:12;15.30;99.90
52965;DHT22;42923;53.220;6.528;2023-07-30T03:14:38;15.30;99.90
52965;DHT22;42923;53.220;6.528;2023-07-30T03:17:04;15.30;99.90
52965;DHT22;42923;53.220;6.528;2023-07-30T03:19:30;15.30;99.90
52965;DHT22;42923;53.220;6.528;2023-07-30T03:21:56;15.30;99.90
52965;DHT22;42923;53.220;6.528;2023-07-30T03:24:22;15.30;99.90
52965;DHT22;42923;53.220;6.528;2023-07-30T03:26:48;15.20;99.90
52965;DHT22;42923;53.220;6.528;2023-07-30T03:29:15;15.20;99.90
52965;DHT22;42923;53.220;6.528;2023-07-30T03:31:41;15.20;99.90
52965;DHT22;42923;53.220;6.528;2023-07-30T03:34:07;15.20;99.90
52965;DHT22;42923;53.220;6.528;2023-07-30T03:36:33;15.10;99.90
52965;DHT22;42923;53.220;6.528;2023-07-30T03:38:58;15.10;99.90
52965;DHT22;42923;53.220;6.528;2023-07-30T03:41:25;15.10;99.90
52965;DHT22;42923;53.220;6.528;2023-07-30T03:43:52;15.10;99.90
52965;DHT22;42923;53.220;6.528;2023-07-30T03:46:18;15.00;99.90
52965;DHT22;42923;53.220;6.528;2023-07-30T03:48:44;15.00;99.90
52965;DHT22;42923;53.220;6.528;2023-07-30T03:51:10;15.00;99.90
52965;DHT22;42923;53.220;6.528;2023-07-30T03:53:36;15.00;99.90
52965;DHT22;42923;53.220;6.528;2023-07-30T03:56:02;15.00;99.90
52965;DHT22;42923;53.220;6.528;2023-07-30T03:58:28;15.00;99.90
52965;DHT22;42923;53.220;6.528;2023-07-30T04:00:56;15.00;99.90
52965;DHT22;42923;53.220;6.528;2023-07-30T04:03:22;15.00;99.90
52965;DHT22;42923;53.220;6.528;2023-07-30T04:05:48;15.00;99.90
52965;DHT22;42923;53.220;6.528;2023-07-30T04:08:14;15.10;99.90
52965;DHT22;42923;53.220;6.528;2023-07-30T04:10:39;15.00;99.90
52965;DHT22;42923;53.220;6.528;2023-07-30T04:13:05;15.00;99.90
52965;DHT22;42923;53.220;6.528;2023-07-30T04:15:33;15.10;99.90
52965;DHT22;42923;53.220;6.528;2023-07-30T04:17:59;15.00;99.90
52965;DHT22;42923;53.220;6.528;2023-07-30T04:20:25;15.10;99.90
52965;DHT22;42923;53.220;6.528;2023-07-30T04:22:51;15.10;99.90
52965;DHT22;42923;53.220;6.528;2023-07-30T04:25:17;15.10;99.90
52965;DHT22;42923;53.220;6.528;2023-07-30T04:27:43;15.10;99.90
52965;DHT22;42923;53.220;6.528;2023-07-30T04:30:10;15.20;99.90
52965;DHT22;42923;53.220;6.528;2023-07-30T04:32:36;15.20;99.90
52965;DHT22;42923;53.220;6.528;2023-07-30T04:35:02;15.30;99.90
52965;DHT22;42923;53.220;6.528;2023-07-30T04:37:28;15.20;99.90
52965;DHT22;42923;53.220;6.528;2023-07-30T04:39:54;15.20;99.90
52965;DHT22;42923;53.220;6.528;2023-07-30T04:42:21;15.20;99.90
52965;DHT22;42923;53.220;6.528;2023-07-30T04:44:47;15.30;99.90
52965;DHT22;42923;53.220;6.528;2023-07-30T04:47:15;15.40;99.90
52965;DHT22;42923;53.220;6.528;2023-07-30T04:49:41;15.40;99.90
52965;DHT22;42923;53.220;6.528;2023-07-30T04:52:07;15.40;99.90
52965;DHT22;42923;53.220;6.528;2023-07-30T04:54:34;15.50;99.90
52965;DHT22;42923;53.220;6.528;2023-07-30T04:57:02;15.60;99.90
52965;DHT22;42923;53.220;6.528;2023-07-30T04:59:28;15.60;99.90
52965;DHT22;42923;53.220;6.528;2023-07-30T05:01:54;15.70;99.90
52965;DHT22;42923;53.220;6.528;2023-07-30T05:04:20;15.70;99.90
52965;DHT22;42923;53.220;6.528;2023-07-30T05:06:45;15.80;99.90
52965;DHT22;42923;53.220;6.528;2023-07-30T05:09:11;15.80;99.90
52965;DHT22;42923;53.220;6.528;2023-07-30T05:11:38;15.80;99.90
52965;DHT22;42923;53.220;6.528;2023-07-30T05:14:04;15.90;99.90
52965;DHT22;42923;53.220;6.528;2023-07-30T05:16:29;15.90;99.90
52965;DHT22;42923;53.220;6.528;2023-07-30T05:18:55;15.90;99.90
52965;DHT22;42923;53.220;6.528;2023-07-30T05:21:21;16.00;99.90
52965;DHT22;42923;53.220;6.528;2023-07-30T05:23:47;16.00;99.90
52965;DHT22;42923;53.220;6.528;2023-07-30T05:26:12;16.00;99.90
52965;DHT22;42923;53.220;6.528;2023-07-30T05:28:38;16.00;99.90
52965;DHT22;42923;53.220;6.528;2023-07-30T05:31:04;16.00;99.90
52965;DHT22;42923;53.220;6.528;2023-07-30T05:33:29;16.10;99.90
52965;DHT22;42923;53.220;6.528;2023-07-30T05:35:55;16.10;99.90
52965;DHT22;42923;53.220;6.528;2023-07-30T05:38:21;16.30;99.90
52965;DHT22;42923;53.220;6.528;2023-07-30T05:40:47;16.40;99.90
52965;DHT22;42923;53.220;6.528;2023-07-30T05:43:13;16.50;99.90
52965;DHT22;42923;53.220;6.528;2023-07-30T05:45:39;16.60;99.90
52965;DHT22;42923;53.220;6.528;2023-07-30T05:48:04;16.70;99.90
52965;DHT22;42923;53.220;6.528;2023-07-30T05:50:30;16.80;99.90
52965;DHT22;42923;53.220;6.528;2023-07-30T05:52:56;16.80;99.90
52965;DHT22;42923;53.220;6.528;2023-07-30T05:55:22;16.90;99.90
52965;DHT22;42923;53.220;6.528;2023-07-30T05:57:47;17.00;99.90
52965;DHT22;42923;53.220;6.528;2023-07-30T06:00:13;17.10;99.90
52965;DHT22;42923;53.220;6.528;2023-07-30T06:02:39;17.10;99.90
52965;DHT22;42923;53.220;6.528;2023-07-30T06:05:05;17.20;99.90
52965;DHT22;42923;53.220;6.528;2023-07-30T06:07:30;17.30;99.90
52965;DHT22;42923;53.220;6.528;2023-07-30T06:09:56;17.30;99.90
52965;DHT22;42923;53.220;6.528;2023-07-30T06:12:22;17.40;99.90
52965;DHT22;42923;53.220;6.528;2023-07-30T06:14:48;17.50;99.90
52965;DHT22;42923;53.220;6.528;2023-07-30T06:17:13;17.50;99.90
52965;DHT22;42923;53.220;6.528;2023-07-30T06:19:39;17.60;99.90
52965;DHT22;42923;53.220;6.528;2023-07-30T06:22:05;17.60;99.90
52965;DHT22;42923;53.220;6.528;2023-07-30T06:24:31;17.70;99.90
52965;DHT22;42923;53.220;6.528;2023-07-30T06:26:57;17.70;99.90
52965;DHT22;42923;53.220;6.528;2023-07-30T06:29:22;17.70;99.90
52965;DHT22;42923;53.220;6.528;2023-07-30T06:31:48;17.80;99.90
52965;DHT22;42923;53.220;6.528;2023-07-30T06:34:14;17.90;99.90
52965;DHT22;42923;53.220;6.528;2023-07-30T06:36:40;18.00;99.90
52965;DHT22;42923;53.220;6.528;2023-07-30T06:39:06;18.10;99.90
52965;DHT22;42923;53.220;6.528;2023-07-30T06:41:31;18.10;99.90
52965;DHT22;42923;53.220;6.528;2023-07-30T06:43:58;18.20;99.90
52965;DHT22;42923;53.220;6.528;2023-07-30T06:46:23;18.30;99.90
52965;DHT22;42923;53.220;6.528;2023-07-30T06:48:49;18.30;99.90
52965;DHT22;42923;53.220;6.528;2023-07-30T06:51:19;18.40;99.90
52965;DHT22;42923;53.220;6.528;2023-07-30T06:53:45;18.30;99.90
52965;DHT22;42923;53.220;6.528;2023-07-30T06:56:11;18.30;99.90
52965;DHT22;42923;53.220;6.528;2023-07-30T06:58:36;18.20;99.90
52965;DHT22;42923;53.220;6.528;2023-07-30T07:01:02;18.10;99.90
52965;DHT22;42923;53.220;6.528;2023-07-30T07:03:28;18.10;99.90
52965;DHT22;42923;53.220;6.528;2023-07-30T07:05:55;18.10;99.90
52965;DHT22;42923;53.220;6.528;2023-07-30T07:08:21;18.10;99.90
52965;DHT22;42923;53.220;6.528;2023-07-30T07:10:47;18.10;99.90
52965;DHT22;42923;53.220;6.528;2023-07-30T07:13:13;18.20;99.90
52965;DHT22;42923;53.220;6.528;2023-07-30T07:15:44;18.10;99.90
52965;DHT22;42923;53.220;6.528;2023-07-30T07:18:10;18.10;99.90
52965;DHT22;42923;53.220;6.528;2023-07-30T07:20:37;18.10;99.90
52965;DHT22;42923;53.220;6.528;2023-07-30T07:23:03;18.00;99.90
52965;DHT22;42923;53.220;6.528;2023-07-30T07:25:29;18.10;99.90
52965;DHT22;42923;53.220;6.528;2023-07-30T07:27:54;18.30;99.90
52965;DHT22;42923;53.220;6.528;2023-07-30T07:30:20;18.50;99.90
52965;DHT22;42923;53.220;6.528;2023-07-30T07:32:46;18.60;99.90
52965;DHT22;42923;53.220;6.528;2023-07-30T07:35:19;18.80;99.90
52965;DHT22;42923;53.220;6.528;2023-07-30T07:37:45;19.00;99.90
52965;DHT22;42923;53.220;6.528;2023-07-30T07:40:11;19.20;99.90
52965;DHT22;42923;53.220;6.528;2023-07-30T07:42:40;19.60;99.90
52965;DHT22;42923;53.220;6.528;2023-07-30T07:45:07;20.00;99.90
52965;DHT22;42923;53.220;6.528;2023-07-30T07:47:33;20.20;99.90
52965;DHT22;42923;53.220;6.528;2023-07-30T07:49:58;20.40;99.90
52965;DHT22;42923;53.220;6.528;2023-07-30T07:52:24;20.50;99.90
52965;DHT22;42923;53.220;6.528;2023-07-30T07:54:50;20.80;99.90
52965;DHT22;42923;53.220;6.528;2023-07-30T07:57:15;20.90;99.90
52965;DHT22;42923;53.220;6.528;2023-07-30T07:59:41;20.80;99.90
52965;DHT22;42923;53.220;6.528;2023-07-30T08:02:11;20.60;99.90
52965;DHT22;42923;53.220;6.528;2023-07-30T08:04:37;20.40;99.90
52965;DHT22;42923;53.220;6.528;2023-07-30T08:07:02;20.30;99.90
52965;DHT22;42923;53.220;6.528;2023-07-30T08:09:30;20.20;99.90
52965;DHT22;42923;53.220;6.528;2023-07-30T08:11:56;20.10;99.90
52965;DHT22;42923;53.220;6.528;2023-07-30T08:14:21;19.90;99.90
52965;DHT22;42923;53.220;6.528;2023-07-30T08:16:47;19.70;99.90
52965;DHT22;42923;53.220;6.528;2023-07-30T08:19:13;19.60;99.90
52965;DHT22;42923;53.220;6.528;2023-07-30T08:21:39;19.60;99.90
52965;DHT22;42923;53.220;6.528;2023-07-30T08:24:04;19.60;99.90
52965;DHT22;42923;53.220;6.528;2023-07-30T08:26:31;19.60;99.90
52965;DHT22;42923;53.220;6.528;2023-07-30T08:28:57;19.60;99.90
52965;DHT22;42923;53.220;6.528;2023-07-30T08:31:23;19.60;99.90
52965;DHT22;42923;53.220;6.528;2023-07-30T08:33:49;19.60;99.90
52965;DHT22;42923;53.220;6.528;2023-07-30T08:36:15;19.60;99.90
52965;DHT22;42923;53.220;6.528;2023-07-30T08:38:41;19.70;99.90
52965;DHT22;42923;53.220;6.528;2023-07-30T08:41:07;19.60;99.90
52965;DHT22;42923;53.220;6.528;2023-07-30T08:43:34;19.60;99.90
52965;DHT22;42923;53.220;6.528;2023-07-30T08:46:00;19.50;99.90
52965;DHT22;42923;53.220;6.528;2023-07-30T08:48:26;19.40;99.90
52965;DHT22;42923;53.220;6.528;2023-07-30T08:50:53;19.40;99.90
52965;DHT22;42923;53.220;6.528;2023-07-30T08:53:23;19.50;99.90
52965;DHT22;42923;53.220;6.528;2023-07-30T08:55:49;19.60;99.90
52965;DHT22;42923;53.220;6.528;2023-07-30T08:58:15;19.70;99.90
52965;DHT22;42923;53.220;6.528;2023-07-30T09:00:42;19.80;99.90
52965;DHT22;42923;53.220;6.528;2023-07-30T09:03:08;20.00;99.90
52965;DHT22;42923;53.220;6.528;2023-07-30T09:05:34;20.10;99.90
52965;DHT22;42923;53.220;6.528;2023-07-30T09:08:00;20.30;99.90
52965;DHT22;42923;53.220;6.528;2023-07-30T09:10:26;20.50;99.90
52965;DHT22;42923;53.220;6.528;2023-07-30T09:12:57;20.50;99.90
52965;DHT22;42923;53.220;6.528;2023-07-30T09:15:36;20.50;99.90
52965;DHT22;42923;53.220;6.528;2023-07-30T09:18:05;20.40;99.90
52965;DHT22;42923;53.220;6.528;2023-07-30T09:20:41;20.30;99.90
52965;DHT22;42923;53.220;6.528;2023-07-30T09:23:08;20.20;99.90
52965;DHT22;42923;53.220;6.528;2023-07-30T09:25:35;20.00;99.90
52965;DHT22;42923;53.220;6.528;2023-07-30T09:28:01;19.90;99.90
52965;DHT22;42923;53.220;6.528;2023-07-30T09:30:27;19.80;99.90
52965;DHT22;42923;53.220;6.528;2023-07-30T09:32:57;19.80;99.90
52965;DHT22;42923;53.220;6.528;2023-07-30T09:35:25;19.70;99.90
52965;DHT22;42923;53.220;6.528;2023-07-30T09:38:02;19.70;99.90
52965;DHT22;42923;53.220;6.528;2023-07-30T09:40:32;19.70;99.90
52965;DHT22;42923;53.220;6.528;2023-07-30T09:42:58;19.60;99.90
52965;DHT22;42923;53.220;6.528;2023-07-30T09:45:25;19.60;99.90
52965;DHT22;42923;53.220;6.528;2023-07-30T09:47:54;19.50;99.90
52965;DHT22;42923;53.220;6.528;2023-07-30T09:50:20;19.50;99.90
52965;DHT22;42923;53.220;6.528;2023-07-30T09:52:46;19.50;99.90
52965;DHT22;42923;53.220;6.528;2023-07-30T09:55:12;19.60;99.90
52965;DHT22;42923;53.220;6.528;2023-07-30T09:57:38;19.80;99.90
52965;DHT22;42923;53.220;6.528;2023-07-30T10:00:06;19.90;99.90
52965;DHT22;42923;53.220;6.528;2023-07-30T10:02:37;20.10;99.90
52965;DHT22;42923;53.220;6.528;2023-07-30T10:05:10;20.10;99.90
52965;DHT22;42923;53.220;6.528;2023-07-30T10:07:38;20.10;99.90
52965;DHT22;42923;53.220;6.528;2023-07-30T10:10:06;20.10;99.90
52965;DHT22;42923;53.220;6.528;2023-07-30T10:12:34;20.10;99.90
52965;DHT22;42923;53.220;6.528;2023-07-30T10:15:01;19.90;99.90
52965;DHT22;42923;53.220;6.528;2023-07-30T10:17:27;20.00;99.90
52965;DHT22;42923;53.220;6.528;2023-07-30T10:19:56;20.00;99.90
52965;DHT22;42923;53.220;6.528;2023-07-30T10:22:23;20.10;99.90
52965;DHT22;42923;53.220;6.528;2023-07-30T10:25:01;20.20;99.90
52965;DHT22;42923;53.220;6.528;2023-07-30T10:27:39;20.40;99.90
52965;DHT22;42923;53.220;6.528;2023-07-30T10:30:14;20.80;99.90
52965;DHT22;42923;53.220;6.528;2023-07-30T10:35:06;21.20;99.90
52965;DHT22;42923;53.220;6.528;2023-07-30T10:37:32;20.90;99.90
52965;DHT22;42923;53.220;6.528;2023-07-30T10:39:57;20.40;99.90
52965;DHT22;42923;53.220;6.528;2023-07-30T10:42:23;19.90;99.90
52965;DHT22;42923;53.220;6.528;2023-07-30T10:44:49;19.50;99.90
52965;DHT22;42923;53.220;6.528;2023-07-30T10:47:15;19.20;99.90
52965;DHT22;42923;53.220;6.528;2023-07-30T10:49:41;19.40;99.90
52965;DHT22;42923;53.220;6.528;2023-07-30T10:52:09;19.60;99.90
52965;DHT22;42923;53.220;6.528;2023-07-30T10:54:36;19.70;99.90
52965;DHT22;42923;53.220;6.528;2023-07-30T10:57:03;19.60;99.90
52965;DHT22;42923;53.220;6.528;2023-07-30T10:59:37;19.50;99.90
52965;DHT22;42923;53.220;6.528;2023-07-30T11:02:03;19.50;99.90
52965;DHT22;42923;53.220;6.528;2023-07-30T11:04:34;19.90;99.90
52965;DHT22;42923;53.220;6.528;2023-07-30T11:06:59;20.50;99.90
52965;DHT22;42923;53.220;6.528;2023-07-30T11:09:27;21.30;99.90
52965;DHT22;42923;53.220;6.528;2023-07-30T11:11:55;21.90;99.90
52965;DHT22;42923;53.220;6.528;2023-07-30T11:14:22;22.00;99.90
52965;DHT22;42923;53.220;6.528;2023-07-30T11:16:49;22.20;99.90
52965;DHT22;42923;53.220;6.528;2023-07-30T11:19:15;22.20;99.90
52965;DHT22;42923;53.220;6.528;2023-07-30T11:21:46;22.40;99.90
52965;DHT22;42923;53.220;6.528;2023-07-30T11:24:12;22.60;99.90
52965;DHT22;42923;53.220;6.528;2023-07-30T11:26:37;22.80;99.90
52965;DHT22;42923;53.220;6.528;2023-07-30T11:29:19;22.90;99.90
52965;DHT22;42923;53.220;6.528;2023-07-30T11:31:46;22.90;99.90
52965;DHT22;42923;53.220;6.528;2023-07-30T11:34:16;23.10;99.90
52965;DHT22;42923;53.220;6.528;2023-07-30T11:36:43;23.40;99.90
52965;DHT22;42923;53.220;6.528;2023-07-30T11:39:10;23.50;99.90
52965;DHT22;42923;53.220;6.528;2023-07-30T11:41:36;23.70;99.90
52965;DHT22;42923;53.220;6.528;2023-07-30T11:44:02;23.90;99.90
52965;DHT22;42923;53.220;6.528;2023-07-30T11:46:29;23.90;99.90
52965;DHT22;42923;53.220;6.528;2023-07-30T11:49:15;23.90;99.90
52965;DHT22;42923;53.220;6.528;2023-07-30T11:51:47;23.90;99.90
52965;DHT22;42923;53.220;6.528;2023-07-30T11:54:23;23.60;99.90
52965;DHT22;42923;53.220;6.528;2023-07-30T11:56:54;23.30;99.90
52965;DHT22;42923;53.220;6.528;2023-07-30T11:59:21;23.20;99.90
52965;DHT22;42923;53.220;6.528;2023-07-30T12:01:48;23.30;99.90
52965;DHT22;42923;53.220;6.528;2023-07-30T12:04:13;23.20;99.90
52965;DHT22;42923;53.220;6.528;2023-07-30T12:06:47;23.00;99.90
52965;DHT22;42923;53.220;6.528;2023-07-30T12:11:54;22.40;99.90
52965;DHT22;42923;53.220;6.528;2023-07-30T12:14:22;22.20;99.90
52965;DHT22;42923;53.220;6.528;2023-07-30T12:16:51;21.90;99.90
52965;DHT22;42923;53.220;6.528;2023-07-30T12:19:16;21.70;99.90
52965;DHT22;42923;53.220;6.528;2023-07-30T12:21:42;21.40;99.90
52965;DHT22;42923;53.220;6.528;2023-07-30T12:24:08;21.20;99.90
52965;DHT22;42923;53.220;6.528;2023-07-30T12:26:34;21.10;99.90
52965;DHT22;42923;53.220;6.528;2023-07-30T12:29:00;21.30;99.90
52965;DHT22;42923;53.220;6.528;2023-07-30T12:31:25;21.80;99.90
52965;DHT22;42923;53.220;6.528;2023-07-30T12:33:51;22.30;99.90
52965;DHT22;42923;53.220;6.528;2023-07-30T12:36:17;22.80;99.90
52965;DHT22;42923;53.220;6.528;2023-07-30T12:38:42;23.30;99.90
52965;DHT22;42923;53.220;6.528;2023-07-30T12:41:08;23.80;99.90
52965;DHT22;42923;53.220;6.528;2023-07-30T12:43:34;24.20;99.90
52965;DHT22;42923;53.220;6.528;2023-07-30T12:45:59;24.60;99.90
52965;DHT22;42923;53.220;6.528;2023-07-30T12:48:25;25.00;99.90
52965;DHT22;42923;53.220;6.528;2023-07-30T12:50:51;25.20;99.90
52965;DHT22;42923;53.220;6.528;2023-07-30T12:53:17;25.40;99.90
52965;DHT22;42923;53.220;6.528;2023-07-30T12:55:42;25.40;99.90
52965;DHT22;42923;53.220;6.528;2023-07-30T12:58:08;25.10;99.90
52965;DHT22;42923;53.220;6.528;2023-07-30T13:00:34;24.80;99.90
52965;DHT22;42923;53.220;6.528;2023-07-30T13:03:00;24.80;99.90
52965;DHT22;42923;53.220;6.528;2023-07-30T13:05:27;25.10;99.90
52965;DHT22;42923;53.220;6.528;2023-07-30T13:07:53;25.50;99.90
52965;DHT22;42923;53.220;6.528;2023-07-30T13:10:19;25.80;99.90
52965;DHT22;42923;53.220;6.528;2023-07-30T13:12:44;26.00;99.90
52965;DHT22;42923;53.220;6.528;2023-07-30T13:15:10;26.10;98.30
52965;DHT22;42923;53.220;6.528;2023-07-30T13:17:37;26.10;95.20
52965;DHT22;42923;53.220;6.528;2023-07-30T13:20:03;26.10;94.50
52965;DHT22;42923;53.220;6.528;2023-07-30T13:22:29;26.00;93.60
52965;DHT22;42923;53.220;6.528;2023-07-30T13:24:55;25.70;91.50
52965;DHT22;42923;53.220;6.528;2023-07-30T13:27:21;25.30;92.80
52965;DHT22;42923;53.220;6.528;2023-07-30T13:29:46;24.80;93.80
52965;DHT22;42923;53.220;6.528;2023-07-30T13:32:14;24.50;94.30
52965;DHT22;42923;53.220;6.528;2023-07-30T13:34:40;24.50;96.30
52965;DHT22;42923;53.220;6.528;2023-07-30T13:37:06;24.40;95.20
52965;DHT22;42923;53.220;6.528;2023-07-30T13:39:32;24.10;96.80
52965;DHT22;42923;53.220;6.528;2023-07-30T13:41:58;24.00;98.00
52965;DHT22;42923;53.220;6.528;2023-07-30T13:44:23;23.90;99.90
52965;DHT22;42923;53.220;6.528;2023-07-30T13:46:49;23.90;99.90
52965;DHT22;42923;53.220;6.528;2023-07-30T13:49:16;23.70;99.90
52965;DHT22;42923;53.220;6.528;2023-07-30T13:51:41;23.70;99.90
52965;DHT22;42923;53.220;6.528;2023-07-30T13:54:07;23.90;99.90
52965;DHT22;42923;53.220;6.528;2023-07-30T13:56:34;24.30;99.90
52965;DHT22;42923;53.220;6.528;2023-07-30T13:58:59;24.70;99.40
52965;DHT22;42923;53.220;6.528;2023-07-30T14:01:25;25.00;99.90
52965;DHT22;42923;53.220;6.528;2023-07-30T14:03:51;25.50;98.40
52965;DHT22;42923;53.220;6.528;2023-07-30T14:06:17;26.20;95.60
52965;DHT22;42923;53.220;6.528;2023-07-30T14:08:43;26.20;87.60
52965;DHT22;42923;53.220;6.528;2023-07-30T14:11:08;25.80;85.60
52965;DHT22;42923;53.220;6.528;2023-07-30T14:13:34;25.80;89.70
52965;DHT22;42923;53.220;6.528;2023-07-30T14:16:00;26.00;86.10
52965;DHT22;42923;53.220;6.528;2023-07-30T14:18:26;25.90;84.20
52965;DHT22;42923;53.220;6.528;2023-07-30T14:20:51;25.90;85.90
52965;DHT22;42923;53.220;6.528;2023-07-30T14:23:18;25.90;83.90
52965;DHT22;42923;53.220;6.528;2023-07-30T14:25:44;25.50;84.10
52965;DHT22;42923;53.220;6.528;2023-07-30T14:28:09;25.10;87.70
52965;DHT22;42923;53.220;6.528;2023-07-30T14:30:35;25.40;90.00
52965;DHT22;42923;53.220;6.528;2023-07-30T14:33:02;25.90;90.90
52965;DHT22;42923;53.220;6.528;2023-07-30T14:35:28;26.40;90.50
52965;DHT22;42923;53.220;6.528;2023-07-30T14:37:54;26.80;88.70
52965;DHT22;42923;53.220;6.528;2023-07-30T14:40:20;27.00;88.40
52965;DHT22;42923;53.220;6.528;2023-07-30T14:42:46;27.20;86.30
52965;DHT22;42923;53.220;6.528;2023-07-30T14:45:12;26.80;85.30
52965;DHT22;42923;53.220;6.528;2023-07-30T14:47:38;26.10;84.30
52965;DHT22;42923;53.220;6.528;2023-07-30T14:50:05;25.20;84.70
52965;DHT22;42923;53.220;6.528;2023-07-30T14:52:31;24.50;87.00
52965;DHT22;42923;53.220;6.528;2023-07-30T14:54:57;23.80;89.20
52965;DHT22;42923;53.220;6.528;2023-07-30T14:57:23;23.20;91.40
52965;DHT22;42923;53.220;6.528;2023-07-30T14:59:49;22.70;93.10
52965;DHT22;42923;53.220;6.528;2023-07-30T15:02:14;22.20;99.90
52965;DHT22;42923;53.220;6.528;2023-07-30T15:04:40;21.60;99.90
52965;DHT22;42923;53.220;6.528;2023-07-30T15:07:06;21.00;99.90
52965;DHT22;42923;53.220;6.528;2023-07-30T15:09:34;20.50;99.90
52965;DHT22;42923;53.220;6.528;2023-07-30T15:12:01;20.00;99.90
52965;DHT22;42923;53.220;6.528;2023-07-30T15:14:27;19.40;99.90
52965;DHT22;42923;53.220;6.528;2023-07-30T15:16:54;18.80;99.90
52965;DHT22;42923;53.220;6.528;2023-07-30T15:19:22;18.60;99.90
52965;DHT22;42923;53.220;6.528;2023-07-30T15:21:48;19.20;99.90
52965;DHT22;42923;53.220;6.528;2023-07-30T15:24:13;20.00;99.90
52965;DHT22;42923;53.220;6.528;2023-07-30T15:26:39;20.50;99.90
52965;DHT22;42923;53.220;6.528;2023-07-30T15:29:05;20.40;99.90
52965;DHT22;42923;53.220;6.528;2023-07-30T15:31:30;20.60;99.90